sensor_id;sensor_type;location;lat;lon;timestamp;pressure;altitude;pressure_sealevel;temperature;humidity
77110;BME280;66062;52.464;16.922;2023-09-08T00:02:12;101480.41;;;17.60;90.26
77110;BME280;66062;52.464;16.922;2023-09-08T00:04:38;101478.41;;;17.62;89.96
77110;BME280;66062;52.464;16.922;2023-09-08T00:07:04;101476.38;;;17.64;89.75
77110;BME280;66062;52.464;16.922;2023-09-08T00:09:29;101465.59;;;17.64;89.67
77110;BME280;66062;52.464;16.922;2023-09-08T00:11:55;101461.88;;;17.73;89.46
77110;BME280;66062;52.464;16.922;2023-09-08T00:14:20;101466.13;;;17.76;89.05
77110;BME280;66062;52.464;16.922;2023-09-08T00:16:46;101460.22;;;17.72;89.25
77110;BME280;66062;52.464;16.922;2023-09-08T00:19:11;101463.06;;;17.71;89.78
77110;BME280;66062;52.464;16.922;2023-09-08T00:21:37;101463.22;;;17.69;89.24
77110;BME280;66062;52.464;16.922;2023-09-08T00:24:03;101454.13;;;17.62;89.58
77110;BME280;66062;52.464;16.922;2023-09-08T00:26:29;101457.59;;;17.54;90.13
77110;BME280;66062;52.464;16.922;2023-09-08T00:28:54;101458.44;;;17.47;90.36
77110;BME280;66062;52.464;16.922;2023-09-08T00:31:20;101461.44;;;17.44;90.84
77110;BME280;66062;52.464;16.922;2023-09-08T00:33:45;101462.44;;;17.43;90.42
77110;BME280;66062;52.464;16.922;2023-09-08T00:36:10;101460.09;;;17.40;90.83
77110;BME280;66062;52.464;16.922;2023-09-08T00:38:36;101451.63;;;17.35;91.39
77110;BME280;66062;52.464;16.922;2023-09-08T00:41:01;101458.03;;;17.34;91.58
77110;BME280;66062;52.464;16.922;2023-09-08T00:43:26;101451.97;;;17.40;90.82
77110;BME280;66062;52.464;16.922;2023-09-08T00:45:53;101455.38;;;17.42;90.82
77110;BME280;66062;52.464;16.922;2023-09-08T00:48:19;101465.31;;;17.41;90.68
77110;BME280;66062;52.464;16.922;2023-09-08T00:50:45;101454.31;;;17.35;90.68
77110;BME280;66062;52.464;16.922;2023-09-08T00:53:11;101452.28;;;17.29;91.42
77110;BME280;66062;52.464;16.922;2023-09-08T00:55:36;101457.16;;;17.25;91.67
77110;BME280;66062;52.464;16.922;2023-09-08T00:58:04;101455.63;;;17.23;92.04
77110;BME280;66062;52.464;16.922;2023-09-08T01:00:29;101456.94;;;17.19;92.29
77110;BME280;66062;52.464;16.922;2023-09-08T01:02:55;101452.25;;;17.21;91.92
77110;BME280;66062;52.464;16.922;2023-09-08T01:05:21;101458.28;;;17.15;92.14
77110;BME280;66062;52.464;16.922;2023-09-08T01:07:47;101449.81;;;17.01;93.31
77110;BME280;66062;52.464;16.922;2023-09-08T01:10:14;101455.13;;;16.85;94.88
77110;BME280;66062;52.464;16.922;2023-09-08T01:12:40;101450.38;;;16.87;94.48
77110;BME280;66062;52.464;16.922;2023-09-08T01:15:06;101453.56;;;16.83;95.22
77110;BME280;66062;52.464;16.922;2023-09-08T01:17:32;101453.06;;;16.79;95.13
77110;BME280;66062;52.464;16.922;2023-09-08T01:20:02;101447.66;;;16.79;95.11
77110;BME280;66062;52.464;16.922;2023-09-08T01:27:37;101454.16;;;16.51;97.24
77110;BME280;66062;52.464;16.922;2023-09-08T01:30:04;101443.22;;;16.52;97.35
77110;BME280;66062;52.464;16.922;2023-09-08T01:32:32;101454.16;;;16.51;97.13
77110;BME280;66062;52.464;16.922;2023-09-08T01:34:58;101450.66;;;16.50;97.65
77110;BME280;66062;52.464;16.922;2023-09-08T01:37:25;101450.47;;;16.52;97.71
77110;BME280;66062;52.464;16.922;2023-09-08T01:39:50;101450.16;;;16.55;97.48
77110;BME280;66062;52.464;16.922;2023-09-08T01:42:16;101449.25;;;16.46;97.98
77110;BME280;66062;52.464;16.922;2023-09-08T01:44:41;101451.41;;;16.43;97.98
77110;BME280;66062;52.464;16.922;2023-09-08T01:47:07;101447.50;;;16.37;98.43
77110;BME280;66062;52.464;16.922;2023-09-08T01:49:32;101438.56;;;16.37;98.55
77110;BME280;66062;52.464;16.922;2023-09-08T01:51:57;101439.94;;;16.41;98.46
77110;BME280;66062;52.464;16.922;2023-09-08T01:54:23;101438.78;;;16.43;97.95
77110;BME280;66062;52.464;16.922;2023-09-08T01:56:48;101434.09;;;16.45;97.34
77110;BME280;66062;52.464;16.922;2023-09-08T01:59:14;101437.94;;;16.43;97.73
77110;BME280;66062;52.464;16.922;2023-09-08T02:01:39;101434.72;;;16.39;97.90
77110;BME280;66062;52.464;16.922;2023-09-08T02:04:05;101442.34;;;16.44;97.55
77110;BME280;66062;52.464;16.922;2023-09-08T02:06:30;101441.97;;;16.39;98.00
77110;BME280;66062;52.464;16.922;2023-09-08T02:08:56;101438.19;;;16.32;98.16
77110;BME280;66062;52.464;16.922;2023-09-08T02:11:21;101438.75;;;16.35;98.13
77110;BME280;66062;52.464;16.922;2023-09-08T02:13:47;101437.94;;;16.43;97.49
77110;BME280;66062;52.464;16.922;2023-09-08T02:16:15;101435.56;;;16.40;97.32
77110;BME280;66062;52.464;16.922;2023-09-08T02:18:42;101440.69;;;16.51;96.96
77110;BME280;66062;52.464;16.922;2023-09-08T02:21:07;101437.38;;;16.57;96.30
77110;BME280;66062;52.464;16.922;2023-09-08T02:23:32;101440.38;;;16.54;96.37
77110;BME280;66062;52.464;16.922;2023-09-08T02:25:58;101439.41;;;16.55;96.09
77110;BME280;66062;52.464;16.922;2023-09-08T02:28:23;101436.31;;;16.50;96.51
77110;BME280;66062;52.464;16.922;2023-09-08T02:30:48;101429.38;;;16.47;97.84
77110;BME280;66062;52.464;16.922;2023-09-08T02:33:14;101426.84;;;16.46;96.89
77110;BME280;66062;52.464;16.922;2023-09-08T02:35:39;101433.88;;;16.39;97.10
77110;BME280;66062;52.464;16.922;2023-09-08T02:38:05;101435.56;;;16.40;97.53
77110;BME280;66062;52.464;16.922;2023-09-08T02:40:30;101436.50;;;16.31;97.64
77110;BME280;66062;52.464;16.922;2023-09-08T02:42:55;101428.75;;;16.27;98.28
77110;BME280;66062;52.464;16.922;2023-09-08T02:45:21;101428.78;;;16.10;98.86
77110;BME280;66062;52.464;16.922;2023-09-08T02:47:46;101436.69;;;16.11;99.51
77110;BME280;66062;52.464;16.922;2023-09-08T02:50:11;101430.88;;;15.98;99.85
77110;BME280;66062;52.464;16.922;2023-09-08T02:52:37;101429.16;;;15.97;100.00
77110;BME280;66062;52.464;16.922;2023-09-08T02:55:02;101428.69;;;16.02;100.00
77110;BME280;66062;52.464;16.922;2023-09-08T02:57:28;101427.63;;;15.95;100.00
77110;BME280;66062;52.464;16.922;2023-09-08T02:59:53;101429.63;;;15.93;100.00
77110;BME280;66062;52.464;16.922;2023-09-08T03:02:22;101420.38;;;15.95;100.00
77110;BME280;66062;52.464;16.922;2023-09-08T03:04:48;101421.69;;;15.91;100.00
77110;BME280;66062;52.464;16.922;2023-09-08T03:07:13;101416.78;;;15.87;100.00
77110;BME280;66062;52.464;16.922;2023-09-08T03:09:38;101421.31;;;15.86;100.00
77110;BME280;66062;52.464;16.922;2023-09-08T03:12:04;101426.50;;;15.79;100.00
77110;BME280;66062;52.464;16.922;2023-09-08T03:14:29;101413.84;;;15.80;100.00
77110;BME280;66062;52.464;16.922;2023-09-08T03:16:55;101417.94;;;15.84;100.00
77110;BME280;66062;52.464;16.922;2023-09-08T03:19:20;101418.47;;;15.88;100.00
77110;BME280;66062;52.464;16.922;2023-09-08T03:21:45;101410.47;;;15.78;100.00
77110;BME280;66062;52.464;16.922;2023-09-08T03:24:11;101411.16;;;15.80;100.00
77110;BME280;66062;52.464;16.922;2023-09-08T03:26:36;101417.38;;;15.80;100.00
77110;BME280;66062;52.464;16.922;2023-09-08T03:29:01;101418.25;;;15.81;100.00
77110;BME280;66062;52.464;16.922;2023-09-08T03:31:27;101420.47;;;15.86;100.00
77110;BME280;66062;52.464;16.922;2023-09-08T03:33:52;101422.47;;;15.83;100.00
77110;BME280;66062;52.464;16.922;2023-09-08T03:36:18;101424.38;;;15.91;100.00
77110;BME280;66062;52.464;16.922;2023-09-08T03:38:43;101413.25;;;15.86;100.00
77110;BME280;66062;52.464;16.922;2023-09-08T03:41:09;101416.78;;;15.87;100.00
77110;BME280;66062;52.464;16.922;2023-09-08T03:43:35;101422.69;;;15.90;100.00
77110;BME280;66062;52.464;16.922;2023-09-08T03:46:01;101417.63;;;15.87;100.00
77110;BME280;66062;52.464;16.922;2023-09-08T03:48:26;101416.94;;;15.85;100.00
77110;BME280;66062;52.464;16.922;2023-09-08T03:50:51;101421.31;;;15.86;100.00
77110;BME280;66062;52.464;16.922;2023-09-08T03:53:17;101419.22;;;15.80;100.00
77110;BME280;66062;52.464;16.922;2023-09-08T03:55:42;101417.31;;;15.72;100.00
77110;BME280;66062;52.464;16.922;2023-09-08T03:58:07;101424.69;;;15.70;100.00
77110;BME280;66062;52.464;16.922;2023-09-08T04:00:33;101422.78;;;15.63;100.00
77110;BME280;66062;52.464;16.922;2023-09-08T04:02:59;101420.94;;;15.63;100.00
77110;BME280;66062;52.464;16.922;2023-09-08T04:05:24;101423.00;;;15.52;100.00
77110;BME280;66062;52.464;16.922;2023-09-08T04:07:50;101417.63;;;15.52;100.00
77110;BME280;66062;52.464;16.922;2023-09-08T04:10:15;101421.59;;;15.48;100.00
77110;BME280;66062;52.464;16.922;2023-09-08T04:12:40;101426.25;;;15.46;100.00
77110;BME280;66062;52.464;16.922;2023-09-08T04:15:07;101420.19;;;15.44;100.00
77110;BME280;66062;52.464;16.922;2023-09-08T04:17:33;101419.81;;;15.38;100.00
77110;BME280;66062;52.464;16.922;2023-09-08T04:19:58;101427.16;;;15.36;100.00
77110;BME280;66062;52.464;16.922;2023-09-08T04:22:24;101424.03;;;15.41;100.00
77110;BME280;66062;52.464;16.922;2023-09-08T04:24:49;101427.56;;;15.41;100.00
77110;BME280;66062;52.464;16.922;2023-09-08T04:27:15;101424.88;;;15.41;100.00
77110;BME280;66062;52.464;16.922;2023-09-08T04:29:40;101423.16;;;15.40;100.00
77110;BME280;66062;52.464;16.922;2023-09-08T04:32:06;101427.16;;;15.36;100.00
77110;BME280;66062;52.464;16.922;2023-09-08T04:34:39;101430.97;;;15.44;100.00
77110;BME280;66062;52.464;16.922;2023-09-08T04:37:04;101431.78;;;15.54;100.00
77110;BME280;66062;52.464;16.922;2023-09-08T04:39:30;101426.94;;;15.57;100.00
77110;BME280;66062;52.464;16.922;2023-09-08T04:41:55;101420.09;;;15.63;100.00
77110;BME280;66062;52.464;16.922;2023-09-08T04:44:20;101424.09;;;15.59;100.00
77110;BME280;66062;52.464;16.922;2023-09-08T04:46:46;101419.47;;;15.69;100.00
77110;BME280;66062;52.464;16.922;2023-09-08T04:49:11;101425.94;;;15.76;100.00
77110;BME280;66062;52.464;16.922;2023-09-08T04:51:36;101426.03;;;15.84;100.00
77110;BME280;66062;52.464;16.922;2023-09-08T04:54:02;101414.00;;;15.96;100.00
77110;BME280;66062;52.464;16.922;2023-09-08T04:56:27;101425.84;;;16.03;100.00
77110;BME280;66062;52.464;16.922;2023-09-08T04:58:53;101429.69;;;16.18;98.93
77110;BME280;66062;52.464;16.922;2023-09-08T05:01:20;101428.97;;;16.16;98.40
77110;BME280;66062;52.464;16.922;2023-09-08T05:03:45;101431.19;;;16.21;98.07
77110;BME280;66062;52.464;16.922;2023-09-08T05:06:11;101428.78;;;16.36;97.84
77110;BME280;66062;52.464;16.922;2023-09-08T05:08:36;101431.34;;;16.37;97.11
77110;BME280;66062;52.464;16.922;2023-09-08T05:11:02;101429.16;;;16.58;95.72
77110;BME280;66062;52.464;16.922;2023-09-08T05:13:27;101424.66;;;16.67;95.21
77110;BME280;66062;52.464;16.922;2023-09-08T05:15:53;101430.78;;;16.77;94.75
77110;BME280;66062;52.464;16.922;2023-09-08T05:18:26;101428.50;;;16.90;93.84
77110;BME280;66062;52.464;16.922;2023-09-08T05:20:51;101432.47;;;16.78;94.39
77110;BME280;66062;52.464;16.922;2023-09-08T05:23:17;101430.63;;;16.79;94.67
77110;BME280;66062;52.464;16.922;2023-09-08T05:25:42;101435.91;;;16.88;93.86
77110;BME280;66062;52.464;16.922;2023-09-08T05:28:07;101434.34;;;17.12;92.94
77110;BME280;66062;52.464;16.922;2023-09-08T05:30:34;101434.72;;;17.17;92.77
77110;BME280;66062;52.464;16.922;2023-09-08T05:32:59;101437.56;;;17.23;92.07
77110;BME280;66062;52.464;16.922;2023-09-08T05:35:24;101431.59;;;17.45;92.05
77110;BME280;66062;52.464;16.922;2023-09-08T05:37:50;101430.47;;;17.64;90.34
77110;BME280;66062;52.464;16.922;2023-09-08T05:40:15;101434.59;;;18.01;88.76
77110;BME280;66062;52.464;16.922;2023-09-08T05:42:40;101434.91;;;17.89;88.93
77110;BME280;66062;52.464;16.922;2023-09-08T05:45:06;101434.91;;;18.46;85.97
77110;BME280;66062;52.464;16.922;2023-09-08T05:47:33;101439.97;;;18.49;85.24
77110;BME280;66062;52.464;16.922;2023-09-08T05:49:58;101435.59;;;18.16;86.58
77110;BME280;66062;52.464;16.922;2023-09-08T05:52:23;101449.78;;;18.26;86.70
77110;BME280;66062;52.464;16.922;2023-09-08T05:54:48;101441.78;;;18.89;83.70
77110;BME280;66062;52.464;16.922;2023-09-08T05:57:14;101441.09;;;19.73;78.80
77110;BME280;66062;52.464;16.922;2023-09-08T05:59:39;101434.88;;;21.14;70.94
77110;BME280;66062;52.464;16.922;2023-09-08T06:02:05;101434.28;;;22.27;67.65
77110;BME280;66062;52.464;16.922;2023-09-08T06:04:31;101433.31;;;23.31;62.64
77110;BME280;66062;52.464;16.922;2023-09-08T06:06:57;101434.19;;;24.05;59.54
77110;BME280;66062;52.464;16.922;2023-09-08T06:09:23;101433.56;;;24.69;57.69
77110;BME280;66062;52.464;16.922;2023-09-08T06:11:48;101431.69;;;25.40;55.64
77110;BME280;66062;52.464;16.922;2023-09-08T06:14:14;101428.25;;;25.65;54.38
77110;BME280;66062;52.464;16.922;2023-09-08T06:16:39;101432.25;;;26.00;52.26
77110;BME280;66062;52.464;16.922;2023-09-08T06:19:05;101421.91;;;26.33;51.43
77110;BME280;66062;52.464;16.922;2023-09-08T06:21:30;101421.59;;;27.76;48.64
77110;BME280;66062;52.464;16.922;2023-09-08T06:23:55;101415.75;;;28.25;46.77
77110;BME280;66062;52.464;16.922;2023-09-08T06:26:21;101414.41;;;27.75;48.22
77110;BME280;66062;52.464;16.922;2023-09-08T06:28:46;101424.16;;;27.04;49.56
77110;BME280;66062;52.464;16.922;2023-09-08T06:31:12;101408.84;;;27.81;49.19
77110;BME280;66062;52.464;16.922;2023-09-08T06:33:39;101420.81;;;27.02;50.68
77110;BME280;66062;52.464;16.922;2023-09-08T06:36:05;101417.44;;;27.55;50.30
77110;BME280;66062;52.464;16.922;2023-09-08T06:38:31;101415.25;;;27.27;51.76
77110;BME280;66062;52.464;16.922;2023-09-08T06:40:57;101417.09;;;28.46;47.44
77110;BME280;66062;52.464;16.922;2023-09-08T06:43:22;101408.50;;;28.42;48.04
77110;BME280;66062;52.464;16.922;2023-09-08T06:45:48;101419.63;;;28.59;46.93
77110;BME280;66062;52.464;16.922;2023-09-08T06:48:14;101424.81;;;27.84;47.82
77110;BME280;66062;52.464;16.922;2023-09-08T06:50:39;101417.25;;;28.09;48.61
77110;BME280;66062;52.464;16.922;2023-09-08T06:53:04;101424.88;;;27.96;49.33
77110;BME280;66062;52.464;16.922;2023-09-08T06:55:30;101421.94;;;29.37;46.26
77110;BME280;66062;52.464;16.922;2023-09-08T06:57:56;101421.16;;;28.55;47.29
77110;BME280;66062;52.464;16.922;2023-09-08T07:00:22;101415.44;;;28.68;45.83
77110;BME280;66062;52.464;16.922;2023-09-08T07:02:47;101426.00;;;29.23;46.74
77110;BME280;66062;52.464;16.922;2023-09-08T07:05:15;101419.06;;;30.67;41.63
77110;BME280;66062;52.464;16.922;2023-09-08T07:07:40;101421.13;;;31.15;39.18
77110;BME280;66062;52.464;16.922;2023-09-08T07:10:07;101417.50;;;30.93;40.74
77110;BME280;66062;52.464;16.922;2023-09-08T07:12:33;101413.72;;;32.55;35.33
77110;BME280;66062;52.464;16.922;2023-09-08T07:14:59;101419.13;;;31.32;37.58
77110;BME280;66062;52.464;16.922;2023-09-08T07:17:25;101412.38;;;31.67;38.62
77110;BME280;66062;52.464;16.922;2023-09-08T07:19:50;101408.50;;;33.00;36.35
77110;BME280;66062;52.464;16.922;2023-09-08T07:22:16;101410.13;;;33.64;35.19
77110;BME280;66062;52.464;16.922;2023-09-08T07:24:41;101407.28;;;32.81;36.78
77110;BME280;66062;52.464;16.922;2023-09-08T07:27:07;101411.94;;;31.53;38.57
77110;BME280;66062;52.464;16.922;2023-09-08T07:29:32;101410.09;;;32.49;38.16
77110;BME280;66062;52.464;16.922;2023-09-08T07:31:57;101408.53;;;31.95;39.04
77110;BME280;66062;52.464;16.922;2023-09-08T07:34:23;101406.13;;;33.24;35.63
77110;BME280;66062;52.464;16.922;2023-09-08T07:36:48;101404.25;;;33.40;34.49
77110;BME280;66062;52.464;16.922;2023-09-08T07:39:13;101400.84;;;32.65;35.39
77110;BME280;66062;52.464;16.922;2023-09-08T07:41:39;101410.72;;;34.67;32.48
77110;BME280;66062;52.464;16.922;2023-09-08T07:44:06;101404.97;;;34.38;33.55
77110;BME280;66062;52.464;16.922;2023-09-08T07:46:31;101400.25;;;34.49;32.07
77110;BME280;66062;52.464;16.922;2023-09-08T07:49:00;101390.31;;;35.17;31.21
77110;BME280;66062;52.464;16.922;2023-09-08T07:51:26;101392.72;;;34.44;32.59
77110;BME280;66062;52.464;16.922;2023-09-08T07:53:55;101399.94;;;34.55;32.36
77110;BME280;66062;52.464;16.922;2023-09-08T07:56:21;101401.56;;;31.38;38.04
77110;BME280;66062;52.464;16.922;2023-09-08T07:58:46;101392.19;;;33.09;33.75
77110;BME280;66062;52.464;16.922;2023-09-08T08:01:13;101394.69;;;33.83;32.61
77110;BME280;66062;52.464;16.922;2023-09-08T08:03:39;101391.44;;;33.24;33.01
77110;BME280;66062;52.464;16.922;2023-09-08T08:06:04;101390.38;;;32.04;36.47
77110;BME280;66062;52.464;16.922;2023-09-08T08:08:30;101390.75;;;32.91;34.33
77110;BME280;66062;52.464;16.922;2023-09-08T08:10:56;101379.19;;;32.57;33.61
77110;BME280;66062;52.464;16.922;2023-09-08T08:13:21;101377.94;;;32.75;34.36
77110;BME280;66062;52.464;16.922;2023-09-08T08:15:47;101379.44;;;34.46;30.98
77110;BME280;66062;52.464;16.922;2023-09-08T08:18:13;101378.75;;;35.00;30.25
77110;BME280;66062;52.464;16.922;2023-09-08T08:20:38;101383.13;;;33.19;32.59
77110;BME280;66062;52.464;16.922;2023-09-08T08:23:05;101381.03;;;33.61;32.57
77110;BME280;66062;52.464;16.922;2023-09-08T08:25:31;101374.38;;;33.52;34.20
77110;BME280;66062;52.464;16.922;2023-09-08T08:27:57;101378.53;;;33.49;34.68
77110;BME280;66062;52.464;16.922;2023-09-08T08:30:24;101368.88;;;36.44;28.69
77110;BME280;66062;52.464;16.922;2023-09-08T08:32:49;101370.34;;;36.90;27.24
77110;BME280;66062;52.464;16.922;2023-09-08T08:35:17;101370.97;;;36.00;28.70
77110;BME280;66062;52.464;16.922;2023-09-08T08:37:42;101376.03;;;33.63;34.21
77110;BME280;66062;52.464;16.922;2023-09-08T08:40:09;101366.63;;;34.75;31.22
77110;BME280;66062;52.464;16.922;2023-09-08T08:42:36;101367.69;;;37.83;27.27
77110;BME280;66062;52.464;16.922;2023-09-08T08:45:03;101367.22;;;35.81;29.04
77110;BME280;66062;52.464;16.922;2023-09-08T08:47:29;101362.31;;;37.31;26.91
77110;BME280;66062;52.464;16.922;2023-09-08T08:49:55;101360.28;;;36.94;25.97
77110;BME280;66062;52.464;16.922;2023-09-08T08:52:21;101349.81;;;36.33;27.31
77110;BME280;66062;52.464;16.922;2023-09-08T08:54:47;101358.22;;;36.28;27.21
77110;BME280;66062;52.464;16.922;2023-09-08T08:57:13;101370.00;;;34.47;29.75
77110;BME280;66062;52.464;16.922;2023-09-08T08:59:39;101354.13;;;36.20;27.87
77110;BME280;66062;52.464;16.922;2023-09-08T09:02:07;101363.91;;;34.45;29.64
77110;BME280;66062;52.464;16.922;2023-09-08T09:04:34;101348.78;;;34.97;29.44
77110;BME280;66062;52.464;16.922;2023-09-08T09:07:01;101348.59;;;35.37;28.72
77110;BME280;66062;52.464;16.922;2023-09-08T09:09:28;101349.91;;;36.99;26.41
77110;BME280;66062;52.464;16.922;2023-09-08T09:11:54;101349.91;;;37.42;26.28
77110;BME280;66062;52.464;16.922;2023-09-08T09:14:20;101345.25;;;36.71;26.89
77110;BME280;66062;52.464;16.922;2023-09-08T09:16:49;101346.56;;;37.40;25.56
77110;BME280;66062;52.464;16.922;2023-09-08T09:19:22;101336.44;;;36.88;26.21
77110;BME280;66062;52.464;16.922;2023-09-08T09:21:56;101339.47;;;35.32;28.83
77110;BME280;66062;52.464;16.922;2023-09-08T09:24:39;101341.44;;;35.26;28.97
77110;BME280;66062;52.464;16.922;2023-09-08T09:27:12;101341.09;;;35.82;29.20
77110;BME280;66062;52.464;16.922;2023-09-08T09:32:12;101341.38;;;36.43;26.27
77110;BME280;66062;52.464;16.922;2023-09-08T09:35:07;101330.84;;;37.11;26.57
77110;BME280;66062;52.464;16.922;2023-09-08T09:37:33;101325.19;;;37.35;25.38
77110;BME280;66062;52.464;16.922;2023-09-08T09:40:01;101329.91;;;36.97;25.50
77110;BME280;66062;52.464;16.922;2023-09-08T09:42:28;101319.53;;;37.78;24.72
77110;BME280;66062;52.464;16.922;2023-09-08T09:44:54;101315.38;;;38.81;23.95
77110;BME280;66062;52.464;16.922;2023-09-08T09:47:19;101324.31;;;39.32;22.67
77110;BME280;66062;52.464;16.922;2023-09-08T09:49:45;101318.22;;;38.21;24.11
77110;BME280;66062;52.464;16.922;2023-09-08T09:52:12;101314.72;;;35.79;27.25
77110;BME280;66062;52.464;16.922;2023-09-08T09:54:42;101312.78;;;36.37;27.01
77110;BME280;66062;52.464;16.922;2023-09-08T09:57:10;101314.75;;;36.84;25.96
77110;BME280;66062;52.464;16.922;2023-09-08T09:59:38;101316.13;;;36.63;25.74
77110;BME280;66062;52.464;16.922;2023-09-08T10:02:13;101319.72;;;37.11;25.16
77110;BME280;66062;52.464;16.922;2023-09-08T10:04:42;101314.09;;;36.45;25.76
77110;BME280;66062;52.464;16.922;2023-09-08T10:07:08;101308.94;;;36.33;25.70
77110;BME280;66062;52.464;16.922;2023-09-08T10:09:36;101306.69;;;36.83;25.18
77110;BME280;66062;52.464;16.922;2023-09-08T10:12:04;101314.22;;;36.35;26.15
77110;BME280;66062;52.464;16.922;2023-09-08T10:14:30;101314.22;;;36.06;26.29
77110;BME280;66062;52.464;16.922;2023-09-08T10:16:59;101310.94;;;35.21;27.26
77110;BME280;66062;52.464;16.922;2023-09-08T10:19:26;101308.34;;;36.60;25.00
77110;BME280;66062;52.464;16.922;2023-09-08T10:21:54;101305.16;;;35.51;26.01
77110;BME280;66062;52.464;16.922;2023-09-08T10:24:27;101321.22;;;33.50;28.51
77110;BME280;66062;52.464;16.922;2023-09-08T10:27:14;101301.88;;;33.85;28.83
77110;BME280;66062;52.464;16.922;2023-09-08T10:29:40;101304.28;;;34.53;28.78
77110;BME280;66062;52.464;16.922;2023-09-08T10:32:07;101292.31;;;35.99;26.03
77110;BME280;66062;52.464;16.922;2023-09-08T10:34:35;101290.53;;;36.09;25.64
77110;BME280;66062;52.464;16.922;2023-09-08T10:37:01;101301.16;;;35.73;25.64
77110;BME280;66062;52.464;16.922;2023-09-08T10:39:35;101292.75;;;34.90;26.77
77110;BME280;66062;52.464;16.922;2023-09-08T10:47:12;101294.03;;;35.56;27.28
77110;BME280;66062;52.464;16.922;2023-09-08T10:49:38;101290.69;;;36.94;25.57
77110;BME280;66062;52.464;16.922;2023-09-08T10:52:11;101281.56;;;38.82;22.78
77110;BME280;66062;52.464;16.922;2023-09-08T10:54:44;101280.53;;;36.36;25.74
77110;BME280;66062;52.464;16.922;2023-09-08T10:57:17;101282.72;;;37.06;24.87
77110;BME280;66062;52.464;16.922;2023-09-08T10:59:57;101286.88;;;34.27;26.76
77110;BME280;66062;52.464;16.922;2023-09-08T11:02:37;101271.59;;;35.09;26.27
77110;BME280;66062;52.464;16.922;2023-09-08T11:07:32;101267.28;;;34.83;26.53
77110;BME280;66062;52.464;16.922;2023-09-08T11:10:01;101276.06;;;35.05;26.14
77110;BME280;66062;52.464;16.922;2023-09-08T11:12:27;101265.53;;;35.80;25.46
77110;BME280;66062;52.464;16.922;2023-09-08T11:14:53;101266.63;;;36.60;24.12
77110;BME280;66062;52.464;16.922;2023-09-08T11:17:18;101272.84;;;35.71;24.76
77110;BME280;66062;52.464;16.922;2023-09-08T11:19:48;101271.03;;;35.85;25.44
77110;BME280;66062;52.464;16.922;2023-09-08T11:22:14;101265.00;;;34.90;27.76
77110;BME280;66062;52.464;16.922;2023-09-08T11:24:42;101261.38;;;35.43;26.87
77110;BME280;66062;52.464;16.922;2023-09-08T11:27:08;101254.66;;;35.49;26.30
77110;BME280;66062;52.464;16.922;2023-09-08T11:29:33;101252.03;;;36.26;27.31
77110;BME280;66062;52.464;16.922;2023-09-08T11:31:59;101249.19;;;35.39;26.36
77110;BME280;66062;52.464;16.922;2023-09-08T11:34:24;101258.59;;;34.25;27.34
77110;BME280;66062;52.464;16.922;2023-09-08T11:36:50;101254.50;;;34.87;25.92
77110;BME280;66062;52.464;16.922;2023-09-08T11:39:15;101244.38;;;35.84;25.09
77110;BME280;66062;52.464;16.922;2023-09-08T11:41:41;101259.31;;;35.88;25.85
77110;BME280;66062;52.464;16.922;2023-09-08T11:44:06;101245.94;;;34.78;26.27
77110;BME280;66062;52.464;16.922;2023-09-08T11:46:32;101255.50;;;34.47;26.66
77110;BME280;66062;52.464;16.922;2023-09-08T11:48:57;101244.59;;;34.60;26.91
77110;BME280;66062;52.464;16.922;2023-09-08T11:51:23;101242.50;;;34.32;28.21
77110;BME280;66062;52.464;16.922;2023-09-08T11:53:49;101250.13;;;34.65;27.15
77110;BME280;66062;52.464;16.922;2023-09-08T11:56:15;101237.53;;;34.19;27.01
77110;BME280;66062;52.464;16.922;2023-09-08T11:58:41;101240.38;;;33.73;28.87
77110;BME280;66062;52.464;16.922;2023-09-08T12:01:07;101233.09;;;35.36;25.91
77110;BME280;66062;52.464;16.922;2023-09-08T12:03:32;101228.59;;;35.45;25.53
77110;BME280;66062;52.464;16.922;2023-09-08T12:05:58;101234.91;;;35.12;25.78
77110;BME280;66062;52.464;16.922;2023-09-08T12:08:32;101231.34;;;34.52;26.45
77110;BME280;66062;52.464;16.922;2023-09-08T12:10:58;101221.22;;;34.82;26.32
77110;BME280;66062;52.464;16.922;2023-09-08T12:13:23;101221.06;;;35.80;25.30
77110;BME280;66062;52.464;16.922;2023-09-08T12:15:49;101221.66;;;35.43;25.97
77110;BME280;66062;52.464;16.922;2023-09-08T12:18:14;101224.97;;;34.52;26.75
77110;BME280;66062;52.464;16.922;2023-09-08T12:20:41;101218.66;;;35.97;24.79
77110;BME280;66062;52.464;16.922;2023-09-08T12:23:27;101217.13;;;36.15;25.88
77110;BME280;66062;52.464;16.922;2023-09-08T12:25:52;101225.31;;;34.30;27.07
77110;BME280;66062;52.464;16.922;2023-09-08T12:28:20;101208.81;;;35.13;25.89
77110;BME280;66062;52.464;16.922;2023-09-08T12:30:46;101213.72;;;35.26;26.19
77110;BME280;66062;52.464;16.922;2023-09-08T12:33:13;101208.47;;;35.87;26.23
77110;BME280;66062;52.464;16.922;2023-09-08T12:35:42;101212.28;;;34.90;25.85
77110;BME280;66062;52.464;16.922;2023-09-08T12:38:08;101213.06;;;36.50;24.08
77110;BME280;66062;52.464;16.922;2023-09-08T12:40:36;101205.47;;;37.16;23.13
77110;BME280;66062;52.464;16.922;2023-09-08T12:43:02;101206.44;;;36.46;23.53
77110;BME280;66062;52.464;16.922;2023-09-08T12:45:29;101206.03;;;36.10;24.07
77110;BME280;66062;52.464;16.922;2023-09-08T12:47:57;101206.03;;;36.33;24.97
77110;BME280;66062;52.464;16.922;2023-09-08T12:50:24;101196.75;;;35.67;25.25